createdAt,value
2018-12-25T00:00:46.391Z,15.97
2018-12-25T00:03:35.009Z,15.07
2018-12-25T00:10:02.550Z,15.07
2018-12-25T00:13:02.861Z,15.17
2018-12-25T00:16:03.508Z,14.50
2018-12-25T00:19:06.274Z,13.93
2018-12-25T00:22:06.259Z,14.87
2018-12-25T00:25:06.769Z,15.07
2018-12-25T00:28:07.074Z,14.47
2018-12-25T00:31:07.905Z,13.43
2018-12-25T00:34:08.469Z,13.87
2018-12-25T00:37:09.028Z,14.33
2018-12-25T00:40:09.572Z,14.30
2018-12-25T00:43:10.251Z,12.30
2018-12-25T00:46:11.576Z,13.47
2018-12-25T00:49:14.929Z,14.03
2018-12-25T00:52:14.910Z,12.27
2018-12-25T00:55:15.359Z,12.57
2018-12-25T00:58:16.274Z,13.13
2018-12-25T01:01:16.678Z,13.07
2018-12-25T01:04:17.367Z,13.17
2018-12-25T01:07:18.244Z,13.57
2018-12-25T01:10:18.918Z,13.70
2018-12-25T01:13:19.198Z,13.87
2018-12-25T01:16:19.535Z,14.13
2018-12-25T01:19:23.385Z,14.70
2018-12-25T01:22:22.356Z,14.63
2018-12-25T01:25:23.010Z,13.80
2018-12-25T01:28:23.473Z,14.67
2018-12-25T01:31:24.031Z,14.50
2018-12-25T01:34:24.571Z,13.60
2018-12-25T01:37:25.154Z,15.17
2018-12-25T01:40:26.068Z,14.37
2018-12-25T01:43:26.383Z,12.67
2018-12-25T01:46:27.468Z,14.03
2018-12-25T01:49:31.771Z,15.03
2018-12-25T01:52:30.645Z,13.93
2018-12-25T01:55:31.502Z,14.03
2018-12-25T01:58:31.957Z,13.03
2018-12-25T02:01:32.301Z,12.67
2018-12-25T02:04:33.573Z,14.17
2018-12-25T02:07:33.967Z,13.30
2018-12-25T02:10:35.004Z,13.40
2018-12-25T02:13:35.955Z,13.90
2018-12-25T02:16:36.695Z,14.93
2018-12-25T02:19:40.285Z,14.10
2018-12-25T02:22:39.873Z,13.17
2018-12-25T02:25:44.594Z,13.37
2018-12-25T02:28:45.085Z,13.77
2018-12-25T02:31:46.031Z,14.20
2018-12-25T02:34:46.638Z,13.40
2018-12-25T02:37:47.464Z,13.50
2018-12-25T02:40:47.938Z,14.87
2018-12-25T02:43:48.262Z,15.00
2018-12-25T02:46:48.778Z,15.07
2018-12-25T02:49:50.519Z,17.73
2018-12-25T02:52:51.298Z,18.87
2018-12-25T02:55:52.011Z,18.63
2018-12-25T02:58:52.396Z,16.90
2018-12-25T03:01:53.115Z,15.03
2018-12-25T03:04:53.426Z,16.30
2018-12-25T03:07:54.534Z,17.33
2018-12-25T03:10:55.268Z,16.33
2018-12-25T03:13:56.094Z,17.40
2018-12-25T03:16:56.533Z,14.97
2018-12-25T03:20:00.041Z,17.27
2018-12-25T03:22:59.326Z,17.10
2018-12-25T03:25:59.846Z,16.60
2018-12-25T03:29:00.138Z,16.77
2018-12-25T03:32:01.097Z,22.55
2018-12-25T03:35:01.679Z,19.03
2018-12-25T03:38:02.145Z,15.97
2018-12-25T03:41:03.311Z,14.63
2018-12-25T03:44:03.859Z,13.93
2018-12-25T03:47:04.782Z,15.83
2018-12-25T03:50:10.938Z,24.67
2018-12-25T03:52:55.742Z,20.93
2018-12-25T03:56:03.617Z,18.33
2018-12-25T03:59:11.482Z,13.73
2018-12-25T04:01:59.979Z,14.87
2018-12-25T04:05:07.842Z,19.03
2018-12-25T04:08:08.970Z,17.53
2018-12-25T04:10:57.505Z,22.00
2018-12-25T04:14:05.454Z,19.90
2018-12-25T04:17:06.209Z,19.77
2018-12-25T04:20:06.801Z,16.27
2018-12-25T04:23:07.388Z,17.23
2018-12-25T04:26:07.885Z,17.83
2018-12-25T04:29:08.542Z,17.20
2018-12-25T04:32:08.946Z,20.03
2018-12-25T04:35:09.508Z,24.70
2018-12-25T04:38:10.172Z,17.43
2018-12-25T04:41:10.706Z,14.87
2018-12-25T04:43:59.244Z,18.47
2018-12-25T04:47:07.137Z,18.63
2018-12-25T04:50:07.957Z,16.87
2018-12-25T04:53:08.511Z,15.80
2018-12-25T04:56:09.050Z,14.73
2018-12-25T04:59:09.682Z,15.70
2018-12-25T05:02:10.241Z,13.83
2018-12-25T05:05:10.637Z,12.40
2018-12-25T05:08:11.239Z,12.00
2018-12-25T05:11:11.518Z,10.53
2018-12-25T05:14:12.149Z,11.53
2018-12-25T05:17:00.678Z,10.40
2018-12-25T05:20:08.670Z,10.83
2018-12-25T05:23:09.553Z,10.77
2018-12-25T05:26:10.001Z,11.17
2018-12-25T05:29:10.857Z,10.90
2018-12-25T05:32:11.387Z,10.30
2018-12-25T05:35:11.821Z,10.33
2018-12-25T05:38:12.191Z,9.43
2018-12-25T05:41:00.757Z,10.03
2018-12-25T05:44:08.690Z,9.00
2018-12-25T05:47:09.172Z,11.30
2018-12-25T05:50:09.873Z,9.60
2018-12-25T05:53:10.229Z,10.00
2018-12-25T05:56:10.749Z,10.43
2018-12-25T05:59:11.460Z,10.20
2018-12-25T06:02:11.923Z,8.60
2018-12-25T06:05:12.822Z,9.70
2018-12-25T06:08:13.461Z,9.23
2018-12-25T06:11:01.996Z,10.97
2018-12-25T06:14:09.990Z,12.33
2018-12-25T06:17:10.661Z,10.37
2018-12-25T06:20:11.125Z,10.73
2018-12-25T06:23:11.601Z,10.93
2018-12-25T06:26:12.077Z,10.90
2018-12-25T06:29:12.804Z,11.50
2018-12-25T06:32:13.341Z,11.77
2018-12-25T06:35:14.174Z,13.27
2018-12-25T06:38:14.865Z,12.63
2018-12-25T06:41:15.733Z,11.90
2018-12-25T06:44:04.354Z,11.03
2018-12-25T06:47:12.211Z,10.60
2018-12-25T06:50:12.853Z,12.50
2018-12-25T06:53:13.566Z,10.73
2018-12-25T06:56:13.836Z,10.63
2018-12-25T06:59:14.362Z,11.23
2018-12-25T07:02:14.770Z,12.07
2018-12-25T07:05:15.914Z,11.67
2018-12-25T07:08:16.366Z,12.30
2018-12-25T07:11:16.646Z,17.57
2018-12-25T07:14:17.147Z,14.03
2018-12-25T07:17:17.497Z,11.20
2018-12-25T07:20:06.107Z,13.40
2018-12-25T07:23:14.034Z,23.83
2018-12-25T07:26:15.070Z,11.33
2018-12-25T07:29:15.953Z,19.67
2018-12-25T07:32:16.453Z,11.30
2018-12-25T07:35:17.235Z,10.27
2018-12-25T07:38:17.601Z,10.73
2018-12-25T07:41:18.231Z,11.27
2018-12-25T07:44:18.801Z,9.57
2018-12-25T07:47:19.253Z,9.30
2018-12-25T07:50:19.833Z,9.07
2018-12-25T07:53:08.337Z,10.27
2018-12-25T07:56:16.203Z,9.90
2018-12-25T07:59:17.453Z,11.10
2018-12-25T08:02:17.782Z,10.50
2018-12-25T08:05:18.353Z,11.37
2018-12-25T08:08:18.918Z,13.27
2018-12-25T08:11:19.195Z,10.70
2018-12-25T08:14:19.790Z,10.03
2018-12-25T08:17:20.246Z,11.07
2018-12-25T08:20:20.790Z,10.50
2018-12-25T08:23:21.245Z,10.40
2018-12-25T08:26:21.752Z,10.07
2018-12-25T08:29:22.970Z,9.83
2018-12-25T08:32:11.582Z,13.63
2018-12-25T08:35:19.418Z,10.40
2018-12-25T08:38:19.853Z,11.70
2018-12-25T08:41:21.046Z,11.03
2018-12-25T08:44:21.514Z,12.30
2018-12-25T08:47:21.789Z,13.30
2018-12-25T08:50:23.070Z,16.33
2018-12-25T08:53:23.360Z,13.53
2018-12-25T08:56:23.673Z,12.53
2018-12-25T08:59:23.964Z,11.80
2018-12-25T09:02:12.549Z,13.30
2018-12-25T09:05:20.376Z,33.17
2018-12-25T09:08:21.011Z,17.20
2018-12-25T09:11:21.370Z,12.50
2018-12-25T09:14:22.263Z,14.07
2018-12-25T09:17:23.026Z,13.90
2018-12-25T09:20:23.363Z,13.53
2018-12-25T09:23:23.761Z,13.90
2018-12-25T09:26:24.296Z,14.73
2018-12-25T09:29:24.927Z,12.70
2018-12-25T09:32:25.286Z,15.60
2018-12-25T09:35:25.761Z,13.87
2018-12-25T09:38:26.252Z,13.10
2018-12-25T09:41:26.513Z,16.40
2018-12-25T09:44:27.406Z,13.63
2018-12-25T09:47:15.938Z,12.93
2018-12-25T09:50:23.826Z,14.10
2018-12-25T09:53:24.595Z,13.37
2018-12-25T09:56:25.016Z,13.10
2018-12-25T09:59:27.021Z,15.00
2018-12-25T10:02:27.958Z,11.47
2018-12-25T10:05:16.574Z,11.90
2018-12-25T10:08:24.478Z,12.27
2018-12-25T10:11:25.293Z,14.83
2018-12-25T10:14:26.386Z,13.63
2018-12-25T10:17:26.955Z,14.33
2018-12-25T10:20:28.363Z,13.40
2018-12-25T10:23:16.950Z,14.23
2018-12-25T10:26:24.870Z,14.63
2018-12-25T10:29:25.294Z,15.53
2018-12-25T10:32:26.531Z,13.83
2018-12-25T10:35:26.955Z,12.87
2018-12-25T10:38:27.479Z,13.07
2018-12-25T10:41:28.491Z,12.77
2018-12-25T10:44:29.650Z,11.10
2018-12-25T10:47:18.278Z,12.13
2018-12-25T10:50:26.186Z,13.80
2018-12-25T10:53:27.011Z,15.17
2018-12-25T10:56:27.527Z,15.53
2018-12-25T10:59:28.034Z,17.70
2018-12-25T11:02:28.750Z,17.90
2018-12-25T11:05:29.413Z,16.97
2018-12-25T11:08:30.125Z,17.30
2018-12-25T11:11:30.499Z,17.63
2018-12-25T11:14:20.753Z,16.03
2018-12-25T11:17:28.630Z,15.03
2018-12-25T11:20:29.851Z,16.17
2018-12-25T11:23:30.659Z,16.80
2018-12-25T11:26:31.053Z,15.27
2018-12-25T11:29:31.606Z,14.90
2018-12-25T11:32:32.107Z,15.93
2018-12-25T11:35:32.518Z,15.83
2018-12-25T11:38:33.026Z,15.10
2018-12-25T11:41:33.463Z,15.00
2018-12-25T11:44:22.147Z,15.70
2018-12-25T11:47:29.985Z,25.43
2018-12-25T11:50:30.981Z,20.10
2018-12-25T11:53:32.169Z,15.40
2018-12-25T11:56:32.780Z,16.97
2018-12-25T11:59:33.081Z,17.73
2018-12-25T12:02:34.023Z,16.07
2018-12-25T12:05:34.841Z,16.77
2018-12-25T12:08:35.248Z,12.07
2018-12-25T12:11:23.786Z,13.43
2018-12-25T12:14:31.649Z,13.80
2018-12-25T12:17:32.427Z,15.70
2018-12-25T12:20:33.065Z,16.43
2018-12-25T12:23:34.474Z,16.53
2018-12-25T12:26:34.816Z,17.00
2018-12-25T12:29:36.013Z,17.90
2018-12-25T12:32:36.370Z,16.43
2018-12-25T12:35:36.993Z,17.73
2018-12-25T12:38:38.209Z,17.53
2018-12-25T12:41:26.889Z,15.67
2018-12-25T12:44:34.767Z,16.20
2018-12-25T12:47:42.671Z,18.00
2018-12-25T12:50:43.397Z,28.50
2018-12-25T12:53:44.074Z,16.13
2018-12-25T12:56:44.802Z,14.70
2018-12-25T12:59:45.335Z,16.63
2018-12-25T13:02:46.461Z,15.73
2018-12-25T13:05:47.223Z,16.10
2018-12-25T13:08:48.095Z,13.70
2018-12-25T13:11:49.201Z,15.50
2018-12-25T13:14:49.922Z,14.90
2018-12-25T13:17:50.930Z,16.00
2018-12-25T13:20:51.491Z,15.33
2018-12-25T13:23:51.960Z,15.23
2018-12-25T13:26:52.282Z,16.83
2018-12-25T13:29:52.621Z,15.90
2018-12-25T13:32:53.179Z,14.57
2018-12-25T13:35:54.437Z,14.67
2018-12-25T13:38:55.098Z,14.20
2018-12-25T13:41:55.493Z,16.33
2018-12-25T13:44:56.737Z,15.37
2018-12-25T13:47:57.599Z,15.43
2018-12-25T13:50:58.650Z,14.63
2018-12-25T13:53:58.946Z,13.00
2018-12-25T13:57:00.095Z,14.23
2018-12-25T14:00:00.979Z,13.10
2018-12-25T14:03:01.397Z,13.47
2018-12-25T14:06:01.864Z,14.07
2018-12-25T14:09:02.341Z,13.93
2018-12-25T14:12:03.121Z,17.10
2018-12-25T14:15:03.550Z,17.10
2018-12-25T14:18:04.102Z,16.90
2018-12-25T14:21:05.212Z,16.67
2018-12-25T14:24:06.446Z,18.20
2018-12-25T14:27:07.654Z,19.50
2018-12-25T14:30:08.023Z,16.70
2018-12-25T14:33:08.481Z,16.47
2018-12-25T14:36:08.798Z,16.37
2018-12-25T14:39:09.470Z,15.27
2018-12-25T14:42:10.315Z,16.13
2018-12-25T14:45:10.667Z,19.43
2018-12-25T14:48:11.429Z,16.70
2018-12-25T14:51:11.781Z,15.63
2018-12-25T14:54:12.349Z,15.37
2018-12-25T14:57:12.827Z,15.73
2018-12-25T15:00:13.335Z,14.63
2018-12-25T15:03:14.523Z,17.07
2018-12-25T15:06:15.341Z,13.40
2018-12-25T15:09:15.821Z,13.43
2018-12-25T15:12:16.293Z,15.23
2018-12-25T15:15:16.686Z,12.43
2018-12-25T15:18:17.018Z,12.27
2018-12-25T15:21:17.357Z,12.40
2018-12-25T15:24:17.875Z,17.40
2018-12-25T15:27:18.192Z,15.43
2018-12-25T15:30:18.931Z,16.07
2018-12-25T15:33:19.727Z,15.47
2018-12-25T15:36:20.257Z,16.07
2018-12-25T15:39:20.730Z,13.97
2018-12-25T15:42:21.456Z,14.87
2018-12-25T15:45:22.105Z,16.03
2018-12-25T15:48:22.677Z,16.37
2018-12-25T15:51:23.613Z,16.17
2018-12-25T15:54:24.498Z,15.47
2018-12-25T15:57:25.374Z,16.10
2018-12-25T16:00:26.073Z,16.67
2018-12-25T16:03:27.221Z,15.67
2018-12-25T16:06:27.943Z,16.67
2018-12-25T16:09:29.114Z,16.67
2018-12-25T16:12:33.216Z,15.87
2018-12-25T16:15:33.838Z,17.47
2018-12-25T16:18:34.271Z,14.17
2018-12-25T16:21:34.605Z,14.60
2018-12-25T16:24:35.660Z,15.10
2018-12-25T16:27:36.482Z,17.73
2018-12-25T16:30:37.035Z,15.07
2018-12-25T16:33:37.579Z,14.90
2018-12-25T16:36:39.193Z,14.53
2018-12-25T16:39:40.404Z,15.90
2018-12-25T16:42:41.104Z,14.30
2018-12-25T16:45:41.510Z,14.17
2018-12-25T16:48:42.181Z,13.80
2018-12-25T16:51:42.749Z,14.10
2018-12-25T16:54:43.794Z,13.43
2018-12-25T16:57:44.232Z,13.90
2018-12-25T17:00:44.639Z,14.83
2018-12-25T17:03:45.838Z,14.00
2018-12-25T17:06:46.254Z,13.97
2018-12-25T17:09:47.443Z,14.63
2018-12-25T17:12:48.662Z,15.57
2018-12-25T17:15:49.022Z,15.07
2018-12-25T17:18:49.873Z,15.57
2018-12-25T17:21:50.350Z,15.70
2018-12-25T17:24:51.006Z,15.20
2018-12-25T17:27:51.316Z,15.73
2018-12-25T17:30:51.779Z,16.80
2018-12-25T17:33:52.194Z,16.03
2018-12-25T17:36:52.554Z,17.63
2018-12-25T17:39:52.802Z,18.40
2018-12-25T17:42:53.146Z,17.67
2018-12-25T17:45:53.357Z,19.17
2018-12-25T17:48:53.832Z,16.37
2018-12-25T17:51:55.045Z,17.73
2018-12-25T17:54:55.535Z,20.93
2018-12-25T17:57:55.838Z,17.63
2018-12-25T18:00:56.660Z,19.30
2018-12-25T18:03:57.946Z,19.63
2018-12-25T18:06:46.599Z,17.57
2018-12-25T18:09:47.050Z,17.80
2018-12-25T18:12:47.446Z,17.10
2018-12-25T18:15:48.160Z,17.07
2018-12-25T18:18:48.489Z,16.17
2018-12-25T18:21:49.699Z,16.77
2018-12-25T18:24:51.061Z,15.93
2018-12-25T18:27:52.363Z,18.17
2018-12-25T18:30:52.827Z,16.73
2018-12-25T18:33:54.021Z,16.10
2018-12-25T18:36:54.402Z,17.20
2018-12-25T18:39:54.864Z,19.03
2018-12-25T18:42:55.489Z,17.70
2018-12-25T18:45:56.047Z,17.87
2018-12-25T18:48:57.351Z,19.63
2018-12-25T18:51:57.919Z,17.03
2018-12-25T18:54:46.477Z,19.40
2018-12-25T18:57:54.380Z,21.17
2018-12-25T19:00:54.699Z,18.73
2018-12-25T19:03:55.843Z,19.63
2018-12-25T19:06:57.302Z,20.63
2018-12-25T19:09:58.377Z,20.40
2018-12-25T19:12:58.909Z,20.67
2018-12-25T19:16:00.126Z,19.90
2018-12-25T19:18:48.950Z,19.60
2018-12-25T19:21:56.881Z,19.43
2018-12-25T19:24:57.598Z,19.43
2018-12-25T19:27:58.697Z,17.27
2018-12-25T19:30:59.049Z,18.43
2018-12-25T19:34:00.204Z,19.23
2018-12-25T19:36:48.924Z,17.23
2018-12-25T19:39:56.762Z,17.60
2018-12-25T19:42:57.639Z,17.87
2018-12-25T19:45:58.939Z,19.10
2018-12-25T19:48:59.281Z,20.03
2018-12-25T19:52:00.475Z,19.13
2018-12-25T19:55:00.804Z,18.77
2018-12-25T19:58:01.847Z,19.97
2018-12-25T20:00:50.618Z,20.47
2018-12-25T20:03:58.566Z,19.87
2018-12-25T20:06:58.957Z,18.90
2018-12-25T20:09:59.690Z,18.93
2018-12-25T20:13:01.002Z,20.50
2018-12-25T20:16:01.447Z,19.50
2018-12-25T20:19:02.046Z,18.97
2018-12-25T20:22:02.468Z,20.80
2018-12-25T20:25:02.810Z,19.30
2018-12-25T20:28:13.598Z,18.83
2018-12-25T20:31:40.809Z,20.37
2018-12-25T20:34:41.454Z,18.73
2018-12-25T20:37:42.836Z,21.17
2018-12-25T20:40:44.023Z,20.50
2018-12-25T20:43:48.500Z,20.93
2018-12-25T20:46:49.330Z,21.30
2018-12-25T20:49:50.083Z,19.83
2018-12-25T20:52:50.731Z,21.83
2018-12-25T20:55:51.372Z,21.37
2018-12-25T20:58:52.693Z,22.23
2018-12-25T21:01:53.322Z,23.57
2018-12-25T21:04:53.613Z,22.97
2018-12-25T21:07:54.269Z,23.37
2018-12-25T21:10:55.426Z,22.73
2018-12-25T21:13:55.733Z,22.23
2018-12-25T21:16:56.392Z,25.33
2018-12-25T21:19:57.556Z,21.93
2018-12-25T21:22:58.068Z,22.70
2018-12-25T21:25:59.324Z,26.73
2018-12-25T21:28:59.853Z,24.97
2018-12-25T21:32:00.284Z,23.30
2018-12-25T21:35:00.650Z,24.70
2018-12-25T21:38:01.157Z,24.80
2018-12-25T21:41:01.401Z,25.27
2018-12-25T21:44:01.858Z,28.53
2018-12-25T21:47:02.333Z,25.73
2018-12-25T21:50:03.143Z,24.27
2018-12-25T21:53:04.275Z,25.53
2018-12-25T21:56:04.659Z,26.40
2018-12-25T21:59:05.193Z,25.33
2018-12-25T22:02:05.662Z,23.70
2018-12-25T22:05:06.034Z,24.53
2018-12-25T22:08:06.603Z,23.50
2018-12-25T22:11:07.221Z,27.43
2018-12-25T22:14:08.246Z,22.83
2018-12-25T22:17:09.005Z,22.17
2018-12-25T22:20:09.670Z,26.77
2018-12-25T22:23:10.090Z,23.53
2018-12-25T22:26:10.807Z,23.10
2018-12-25T22:29:12.087Z,23.40
2018-12-25T22:32:13.227Z,22.83
2018-12-25T22:35:13.813Z,23.67
2018-12-25T22:38:02.350Z,22.17
2018-12-25T22:41:10.213Z,24.10
2018-12-25T22:44:11.122Z,22.80
2018-12-25T22:47:11.766Z,23.87
2018-12-25T22:50:12.550Z,22.40
2018-12-25T22:53:13.588Z,19.70
2018-12-25T22:56:14.139Z,18.37
2018-12-25T22:59:14.656Z,18.27
2018-12-25T23:02:15.146Z,19.17
2018-12-25T23:05:15.771Z,20.27
2018-12-25T23:08:16.357Z,21.23
2018-12-25T23:11:17.061Z,20.23
2018-12-25T23:14:05.586Z,21.40
2018-12-25T23:17:13.533Z,21.53
2018-12-25T23:20:14.643Z,19.30
2018-12-25T23:23:15.951Z,17.97
2018-12-25T23:26:16.433Z,18.33
2018-12-25T23:29:16.691Z,17.80
2018-12-25T23:32:17.358Z,17.17
2018-12-25T23:35:17.646Z,18.43
2018-12-25T23:38:18.009Z,19.53
2018-12-25T23:41:18.485Z,19.73
2018-12-25T23:44:18.909Z,20.83
2018-12-25T23:47:19.253Z,18.87
2018-12-25T23:50:19.654Z,20.97
2018-12-25T23:53:20.085Z,18.17
2018-12-25T23:56:20.477Z,17.40
2018-12-25T23:59:20.963Z,16.87
